Hicks Crossroads, North Carolina
Current Conditions -  °F | °C
As of 9:55 PM on Monday 22 Dec 2014 (Local Time) from KJQF Reporting Station
Haze Haze  
Wind Chill: 37°   Ceiling: 300
Heat Index: 37°   Visibility: 2mi
Dew Point: 37°   Wind: 0mph
Humidity: 100%   Direction: NA
Pressure: 30.09"   Gusts: NA
Location:  35.4129°N, 80.8607°W
Report Text: KJQF 230255Z 00000KT 2SM BR OVC003 03/03 A3009
Loading
Personal Weather Stations






























Interactive Weather Map New forecast layout! Learn more

10-Day Weather Forecast

Advertisements
Track Severe Weather on mobile